createdAt,value
2019-06-08T00:00:32.607Z,13.17
2019-06-08T00:03:04.532Z,14.00
2019-06-08T00:05:36.414Z,14.00
2019-06-08T00:08:07.970Z,13.90
2019-06-08T00:10:39.989Z,13.70
2019-06-08T00:13:13.049Z,13.77
2019-06-08T00:15:44.883Z,13.60
2019-06-08T00:18:17.363Z,13.47
2019-06-08T00:20:51.642Z,13.07
2019-06-08T00:23:23.956Z,13.33
2019-06-08T00:25:56.078Z,14.77
2019-06-08T00:28:27.659Z,13.73
2019-06-08T00:30:59.146Z,14.10
2019-06-08T00:33:30.684Z,14.63
2019-06-08T00:36:02.132Z,14.43
2019-06-08T00:38:33.975Z,14.17
2019-06-08T00:41:05.495Z,14.13
2019-06-08T00:43:36.976Z,14.70
2019-06-08T00:46:08.569Z,13.83
2019-06-08T00:48:39.901Z,14.43
2019-06-08T00:51:11.329Z,14.70
2019-06-08T00:53:43.012Z,14.50
2019-06-08T00:56:14.558Z,16.37
2019-06-08T00:58:46.213Z,16.03
2019-06-08T01:01:22.063Z,15.60
2019-06-08T01:03:50.891Z,16.17
2019-06-08T01:06:22.995Z,14.20
2019-06-08T01:08:54.685Z,15.60
2019-06-08T01:11:26.937Z,15.20
2019-06-08T01:13:58.882Z,15.00
2019-06-08T01:16:30.381Z,15.10
2019-06-08T01:19:03.128Z,15.83
2019-06-08T01:21:34.797Z,15.23
2019-06-08T01:24:07.243Z,16.03
2019-06-08T01:26:38.618Z,16.23
2019-06-08T01:29:10.117Z,16.03
2019-06-08T01:31:41.657Z,15.87
2019-06-08T01:34:13.050Z,16.23
2019-06-08T01:36:44.511Z,16.63
2019-06-08T01:39:16.077Z,16.90
2019-06-08T01:41:47.692Z,17.30
2019-06-08T01:44:19.186Z,17.07
2019-06-08T01:46:50.498Z,16.70
2019-06-08T01:49:22.046Z,17.90
2019-06-08T01:51:53.374Z,17.93
2019-06-08T01:54:24.961Z,16.17
2019-06-08T01:56:56.532Z,16.30
2019-06-08T01:59:29.505Z,16.73
2019-06-08T02:02:01.157Z,16.90
2019-06-08T02:04:33.216Z,17.90
2019-06-08T02:07:05.824Z,17.13
2019-06-08T02:09:37.165Z,18.13
2019-06-08T02:12:08.401Z,17.10
2019-06-08T02:14:39.885Z,16.97
2019-06-08T02:17:11.409Z,16.90
2019-06-08T02:19:43.071Z,16.60
2019-06-08T02:22:14.569Z,16.77
2019-06-08T02:24:46.053Z,16.87
2019-06-08T02:27:18.448Z,17.80
2019-06-08T02:29:49.981Z,17.63
2019-06-08T02:32:21.611Z,17.13
2019-06-08T02:34:53.275Z,18.60
2019-06-08T02:37:24.668Z,17.50
2019-06-08T02:39:55.965Z,17.70
2019-06-08T02:42:28.520Z,16.87
2019-06-08T02:45:00.821Z,17.83
2019-06-08T02:47:33.046Z,17.17
2019-06-08T02:50:06.608Z,18.00
2019-06-08T02:52:40.801Z,16.60
2019-06-08T02:55:12.734Z,17.10
2019-06-08T02:57:44.546Z,17.67
2019-06-08T03:00:16.448Z,16.77
2019-06-08T03:02:48.827Z,17.53
2019-06-08T03:05:20.386Z,17.57
2019-06-08T03:07:52.729Z,17.00
2019-06-08T03:10:25.499Z,18.03
2019-06-08T03:12:57.819Z,18.00
2019-06-08T03:15:31.784Z,17.60
2019-06-08T03:18:03.129Z,17.53
2019-06-08T03:20:35.765Z,17.60
2019-06-08T03:23:07.462Z,16.77
2019-06-08T03:25:50.757Z,17.87
2019-06-08T03:28:12.690Z,17.00
2019-06-08T03:30:52.997Z,17.40
2019-06-08T03:33:17.794Z,18.13
2019-06-08T03:35:56.853Z,16.53
2019-06-08T03:38:22.846Z,15.93
2019-06-08T03:40:54.458Z,16.83
2019-06-08T03:43:25.711Z,16.90
2019-06-08T03:45:57.171Z,16.47
2019-06-08T03:48:28.473Z,16.87
2019-06-08T03:51:00.022Z,16.77
2019-06-08T03:53:31.700Z,16.30
2019-06-08T03:56:03.089Z,17.10
2019-06-08T03:58:36.496Z,16.73
2019-06-08T04:01:08.032Z,17.17
2019-06-08T04:03:39.955Z,16.90
2019-06-08T04:06:12.820Z,16.57
2019-06-08T04:08:47.026Z,16.90
2019-06-08T04:11:17.499Z,17.50
2019-06-08T04:13:50.103Z,17.57
2019-06-08T04:16:22.022Z,16.70
2019-06-08T04:18:53.422Z,17.03
2019-06-08T04:21:25.014Z,18.47
2019-06-08T04:23:56.401Z,17.43
2019-06-08T04:26:28.864Z,17.70
2019-06-08T04:29:00.257Z,16.90
2019-06-08T04:31:31.763Z,17.30
2019-06-08T04:34:03.422Z,16.60
2019-06-08T04:36:35.119Z,16.73
2019-06-08T04:39:06.801Z,16.50
2019-06-08T04:41:39.034Z,16.00
2019-06-08T04:44:11.783Z,16.57
2019-06-08T04:46:45.006Z,17.10
2019-06-08T04:49:16.463Z,16.60
2019-06-08T04:51:49.509Z,16.90
2019-06-08T04:54:20.996Z,15.67
2019-06-08T04:56:52.347Z,15.23
2019-06-08T04:59:23.918Z,15.07
2019-06-08T05:01:55.925Z,14.90
2019-06-08T05:04:27.402Z,15.87
2019-06-08T05:06:58.718Z,14.40
2019-06-08T05:09:30.250Z,14.23
2019-06-08T05:12:01.953Z,14.57
2019-06-08T05:14:33.309Z,14.37
2019-06-08T05:17:05.067Z,13.93
2019-06-08T05:19:36.536Z,13.80
2019-06-08T05:22:08.579Z,13.73
2019-06-08T05:24:41.348Z,13.23
2019-06-08T05:27:13.982Z,13.90
2019-06-08T05:29:45.430Z,13.37
2019-06-08T05:32:17.215Z,13.27
2019-06-08T05:34:49.789Z,13.80
2019-06-08T05:37:21.391Z,13.00
2019-06-08T05:39:52.961Z,12.87
2019-06-08T05:42:24.732Z,11.80
2019-06-08T05:44:56.439Z,11.07
2019-06-08T05:47:27.823Z,11.23
2019-06-08T05:49:59.098Z,11.17
2019-06-08T05:52:30.765Z,10.77
2019-06-08T05:55:05.211Z,10.40
2019-06-08T05:57:38.073Z,11.90
2019-06-08T06:00:09.969Z,10.03
2019-06-08T06:02:42.267Z,10.63
2019-06-08T06:05:13.696Z,9.50
2019-06-08T06:07:45.206Z,9.87
2019-06-08T06:10:16.577Z,9.57
2019-06-08T06:12:49.053Z,9.70
2019-06-08T06:15:20.441Z,9.53
2019-06-08T06:17:51.931Z,9.57
2019-06-08T06:20:23.269Z,9.90
2019-06-08T06:22:57.767Z,10.60
2019-06-08T06:25:27.814Z,9.33
2019-06-08T06:27:59.324Z,7.41
2019-06-08T06:30:30.630Z,9.63
2019-06-08T06:33:02.163Z,8.97
2019-06-08T06:35:33.798Z,8.83
2019-06-08T06:38:05.095Z,9.07
2019-06-08T06:40:36.449Z,9.93
2019-06-08T06:43:07.967Z,8.53
2019-06-08T06:45:39.988Z,8.53
2019-06-08T06:48:11.619Z,10.07
2019-06-08T06:50:44.292Z,9.13
2019-06-08T06:53:16.028Z,18.77
2019-06-08T06:55:47.336Z,9.07
2019-06-08T06:58:18.509Z,8.80
2019-06-08T07:00:51.598Z,10.33
2019-06-08T07:03:23.068Z,11.23
2019-06-08T07:05:54.660Z,10.03
2019-06-08T07:08:25.952Z,9.63
2019-06-08T07:10:57.247Z,8.63
2019-06-08T07:13:29.160Z,8.77
2019-06-08T07:16:17.413Z,8.53
2019-06-08T07:18:33.864Z,8.37
2019-06-08T07:21:05.411Z,7.43
2019-06-08T07:23:36.914Z,12.70
2019-06-08T07:26:08.130Z,10.37
2019-06-08T07:28:39.370Z,7.87
2019-06-08T07:31:10.753Z,9.17
2019-06-08T07:33:42.618Z,8.47
2019-06-08T07:36:14.073Z,8.50
2019-06-08T07:38:46.946Z,8.40
2019-06-08T07:41:19.463Z,8.80
2019-06-08T07:43:52.271Z,8.70
2019-06-08T07:46:23.849Z,8.20
2019-06-08T07:48:56.425Z,8.47
2019-06-08T07:51:28.064Z,8.90
2019-06-08T07:53:59.952Z,8.97
2019-06-08T07:56:31.484Z,7.90
2019-06-08T07:59:02.864Z,8.03
2019-06-08T08:01:36.497Z,7.50
2019-06-08T08:04:07.378Z,7.83
2019-06-08T08:06:38.937Z,8.63
2019-06-08T08:09:10.205Z,8.17
2019-06-08T08:11:41.886Z,7.73
2019-06-08T08:14:13.110Z,8.40
2019-06-08T08:16:44.846Z,7.73
2019-06-08T08:19:16.162Z,7.60
2019-06-08T08:21:50.159Z,7.97
2019-06-08T08:24:20.527Z,7.10
2019-06-08T08:26:53.121Z,5.97
2019-06-08T08:29:25.076Z,5.63
2019-06-08T08:31:58.801Z,5.83
2019-06-08T08:34:29.847Z,5.97
2019-06-08T08:37:05.995Z,6.27
2019-06-08T08:39:34.297Z,6.50
2019-06-08T08:42:08.315Z,6.20
2019-06-08T08:44:38.893Z,6.47
2019-06-08T08:47:10.206Z,6.87
2019-06-08T08:49:41.613Z,7.20
2019-06-08T08:52:12.891Z,7.53
2019-06-08T08:54:44.277Z,6.95
2019-06-08T08:57:17.957Z,7.08
2019-06-08T08:59:51.856Z,6.85
2019-06-08T09:02:22.026Z,6.87
2019-06-08T09:04:55.242Z,6.97
2019-06-08T09:07:27.570Z,6.92
2019-06-08T09:10:01.812Z,6.43
2019-06-08T09:12:32.370Z,6.90
2019-06-08T09:15:05.166Z,7.80
2019-06-08T09:17:38.606Z,6.73
2019-06-08T09:20:15.271Z,6.90
2019-06-08T09:22:55.835Z,6.97
2019-06-08T09:25:18.260Z,8.00
2019-06-08T09:27:51.837Z,8.33
2019-06-08T09:30:23.445Z,7.50
2019-06-08T09:32:57.158Z,7.50
2019-06-08T09:35:28.382Z,8.10
2019-06-08T09:38:03.206Z,7.47
2019-06-08T09:40:32.997Z,6.83
2019-06-08T09:43:10.404Z,7.07
2019-06-08T09:45:38.214Z,7.07
2019-06-08T09:48:09.769Z,7.23
2019-06-08T09:50:41.144Z,6.80
2019-06-08T09:53:24.202Z,7.63
2019-06-08T09:55:48.108Z,7.10
2019-06-08T09:58:19.768Z,7.20
2019-06-08T10:00:51.296Z,6.60
2019-06-08T10:03:23.003Z,5.90
2019-06-08T10:05:56.173Z,5.70
2019-06-08T10:08:31.156Z,5.77
2019-06-08T10:11:04.459Z,6.07
2019-06-08T10:13:35.601Z,5.75
2019-06-08T10:16:10.059Z,5.70
2019-06-08T10:18:40.320Z,5.83
2019-06-08T10:21:11.788Z,5.90
2019-06-08T10:23:43.041Z,6.43
2019-06-08T10:26:14.691Z,6.10
2019-06-08T10:28:48.259Z,7.10
2019-06-08T10:31:19.042Z,6.60
2019-06-08T10:33:50.401Z,6.40
2019-06-08T10:36:21.795Z,6.83
2019-06-08T10:38:53.084Z,7.33
2019-06-08T10:41:24.356Z,6.87
2019-06-08T10:43:57.022Z,6.73
2019-06-08T10:46:28.929Z,7.40
2019-06-08T10:49:01.826Z,6.60
2019-06-08T10:51:34.857Z,6.30
2019-06-08T10:54:09.048Z,6.30
2019-06-08T10:56:39.409Z,6.90
2019-06-08T10:59:12.325Z,7.70
2019-06-08T11:01:44.062Z,7.33
2019-06-08T11:04:15.401Z,7.77
2019-06-08T11:06:47.844Z,7.07
2019-06-08T11:09:19.459Z,8.77
2019-06-08T11:11:50.900Z,7.40
2019-06-08T11:14:22.951Z,6.57
2019-06-08T11:16:54.401Z,7.67
2019-06-08T11:19:26.636Z,7.10
2019-06-08T11:22:01.054Z,7.50
2019-06-08T11:24:32.117Z,10.47
2019-06-08T11:27:03.587Z,9.80
2019-06-08T11:29:35.201Z,8.20
2019-06-08T11:32:10.936Z,8.43
2019-06-08T11:34:41.468Z,7.67
2019-06-08T11:37:13.645Z,8.40
2019-06-08T11:39:45.289Z,7.77
2019-06-08T11:42:19.087Z,8.70
2019-06-08T11:44:51.139Z,7.67
2019-06-08T11:47:23.074Z,8.80
2019-06-08T11:49:54.450Z,8.97
2019-06-08T11:52:28.360Z,9.13
2019-06-08T11:55:01.746Z,9.40
2019-06-08T11:57:31.991Z,9.77
2019-06-08T12:00:18.041Z,9.30
2019-06-08T12:02:41.355Z,9.37
2019-06-08T12:05:14.322Z,10.57
2019-06-08T12:07:47.944Z,10.10
2019-06-08T12:10:19.735Z,9.70
2019-06-08T12:12:51.174Z,9.80
2019-06-08T12:15:22.469Z,10.07
2019-06-08T12:17:54.065Z,8.67
2019-06-08T12:20:27.850Z,8.67
2019-06-08T12:22:59.128Z,8.37
2019-06-08T12:25:30.438Z,7.93
2019-06-08T12:28:02.072Z,7.97
2019-06-08T12:30:33.364Z,7.20
2019-06-08T12:33:05.152Z,6.80
2019-06-08T12:35:36.793Z,7.00
2019-06-08T12:38:09.980Z,7.67
2019-06-08T12:40:41.763Z,7.17
2019-06-08T12:43:14.355Z,7.27
2019-06-08T12:45:46.525Z,7.03
2019-06-08T12:48:22.422Z,6.57
2019-06-08T12:50:51.454Z,6.83
2019-06-08T12:53:23.224Z,6.27
2019-06-08T12:55:55.163Z,6.40
2019-06-08T12:58:27.606Z,6.43
2019-06-08T13:00:59.061Z,5.97
2019-06-08T13:03:31.416Z,6.07
2019-06-08T13:06:03.053Z,6.73
2019-06-08T13:08:34.289Z,6.53
2019-06-08T13:11:09.042Z,6.63
2019-06-08T13:13:40.084Z,7.10
2019-06-08T13:16:12.525Z,6.20
2019-06-08T13:18:44.193Z,6.27
2019-06-08T13:21:28.524Z,5.10
2019-06-08T13:23:49.402Z,5.78
2019-06-08T13:26:27.493Z,5.03
2019-06-08T13:28:54.149Z,4.78
2019-06-08T13:31:28.501Z,4.47
2019-06-08T13:33:59.474Z,4.70
2019-06-08T13:36:31.217Z,4.30
2019-06-08T13:39:04.373Z,4.42
2019-06-08T13:41:35.795Z,4.62
2019-06-08T13:44:08.454Z,4.50
2019-06-08T13:46:39.914Z,4.10
2019-06-08T13:49:12.255Z,4.13
2019-06-08T13:51:43.625Z,4.90
2019-06-08T13:54:15.292Z,5.83
2019-06-08T13:56:47.921Z,6.10
2019-06-08T13:59:24.933Z,6.27
2019-06-08T14:01:54.131Z,6.13
2019-06-08T14:04:25.881Z,6.83
2019-06-08T14:06:58.214Z,7.30
2019-06-08T14:09:31.635Z,7.07
2019-06-08T14:12:03.133Z,6.50
2019-06-08T14:14:34.521Z,6.60
2019-06-08T14:17:08.356Z,6.30
2019-06-08T14:19:39.613Z,6.80
2019-06-08T14:22:11.059Z,7.10
2019-06-08T14:24:42.329Z,9.50
2019-06-08T14:27:13.559Z,9.30
2019-06-08T14:29:44.850Z,9.07
2019-06-08T14:32:18.901Z,7.53
2019-06-08T14:34:50.217Z,8.03
2019-06-08T14:37:22.802Z,6.63
2019-06-08T14:39:54.753Z,6.80
2019-06-08T14:42:29.884Z,6.97
2019-06-08T14:44:59.990Z,6.83
2019-06-08T14:47:31.410Z,7.10
2019-06-08T14:50:04.608Z,9.10
2019-06-08T14:52:38.194Z,8.23
2019-06-08T14:55:09.304Z,7.00
2019-06-08T14:57:53.896Z,7.47
2019-06-08T15:00:25.659Z,7.50
2019-06-08T15:02:59.061Z,7.83
2019-06-08T15:05:32.329Z,8.20
2019-06-08T15:08:04.376Z,8.60
2019-06-08T15:10:38.295Z,10.67
2019-06-08T15:13:09.172Z,10.97
2019-06-08T15:15:41.004Z,8.93
2019-06-08T15:18:12.360Z,9.90
2019-06-08T15:20:43.998Z,9.33
2019-06-08T15:23:17.604Z,9.40
2019-06-08T15:25:48.691Z,9.57
2019-06-08T15:28:20.688Z,10.10
2019-06-08T15:30:52.192Z,11.23
2019-06-08T15:33:24.884Z,10.40
2019-06-08T15:35:57.572Z,11.43
2019-06-08T15:38:30.578Z,9.97
2019-06-08T15:41:02.425Z,10.57
2019-06-08T15:43:39.535Z,9.80
2019-06-08T15:46:09.697Z,11.07
2019-06-08T15:48:41.057Z,9.63
2019-06-08T15:51:14.169Z,10.33
2019-06-08T15:53:47.703Z,9.27
2019-06-08T15:56:18.979Z,10.70
2019-06-08T15:58:50.246Z,8.83
2019-06-08T16:01:21.568Z,9.63
2019-06-08T16:03:52.967Z,10.33
2019-06-08T16:06:25.703Z,10.07
2019-06-08T16:08:57.161Z,10.27
2019-06-08T16:11:28.652Z,9.00
2019-06-08T16:13:59.955Z,10.43
2019-06-08T16:16:31.903Z,10.10
2019-06-08T16:19:04.579Z,10.50
2019-06-08T16:21:36.129Z,10.60
2019-06-08T16:24:09.486Z,10.80
2019-06-08T16:26:52.835Z,10.90
2019-06-08T16:29:15.695Z,10.47
2019-06-08T16:31:47.879Z,10.73
2019-06-08T16:34:20.334Z,10.17
2019-06-08T16:36:51.980Z,10.70
2019-06-08T16:39:23.795Z,12.30
2019-06-08T16:41:55.122Z,12.77
2019-06-08T16:44:26.530Z,13.50
2019-06-08T16:46:57.834Z,13.47
2019-06-08T16:49:29.400Z,12.93
2019-06-08T16:52:00.701Z,12.93
2019-06-08T16:54:32.844Z,13.27
2019-06-08T16:57:09.957Z,13.20
2019-06-08T16:59:38.579Z,13.17
2019-06-08T17:02:10.348Z,13.27
2019-06-08T17:04:42.714Z,13.73
2019-06-08T17:07:13.920Z,14.37
2019-06-08T17:09:45.424Z,13.43
2019-06-08T17:12:19.237Z,12.80
2019-06-08T17:14:51.093Z,12.47
2019-06-08T17:17:22.552Z,12.47
2019-06-08T17:19:56.230Z,10.97
2019-06-08T17:22:27.848Z,10.73
2019-06-08T17:24:59.115Z,10.63
2019-06-08T17:27:30.435Z,10.33
2019-06-08T17:30:08.355Z,10.53
2019-06-08T17:32:38.519Z,10.10
2019-06-08T17:35:10.031Z,10.13
2019-06-08T17:37:42.119Z,11.17
2019-06-08T17:40:13.755Z,10.47
2019-06-08T17:42:45.078Z,12.37
2019-06-08T17:45:16.881Z,11.50
2019-06-08T17:47:48.427Z,13.93
2019-06-08T17:50:19.994Z,13.70
2019-06-08T17:52:51.267Z,11.00
2019-06-08T17:55:22.673Z,9.60
2019-06-08T17:57:54.708Z,9.40
2019-06-08T18:00:26.042Z,9.63
2019-06-08T18:03:00.381Z,9.47
2019-06-08T18:05:31.212Z,9.67
2019-06-08T18:08:03.701Z,10.20
2019-06-08T18:10:36.489Z,9.30
2019-06-08T18:13:08.740Z,10.00
2019-06-08T18:15:43.101Z,10.23
2019-06-08T18:18:14.573Z,10.53
2019-06-08T18:20:48.034Z,10.77
2019-06-08T18:23:19.029Z,9.43
2019-06-08T18:25:50.308Z,11.07
2019-06-08T18:28:21.642Z,10.20
2019-06-08T18:30:54.637Z,10.03
2019-06-08T18:33:27.017Z,9.70
2019-06-08T18:35:58.681Z,9.77
2019-06-08T18:38:29.899Z,9.73
2019-06-08T18:41:01.215Z,9.67
2019-06-08T18:43:32.479Z,9.57
2019-06-08T18:46:03.899Z,9.33
2019-06-08T18:48:39.814Z,9.10
2019-06-08T18:51:11.017Z,8.87
2019-06-08T18:54:05.381Z,9.27
2019-06-08T18:56:17.788Z,8.40
2019-06-08T18:58:53.542Z,8.63
2019-06-08T19:01:23.887Z,8.23
2019-06-08T19:03:57.717Z,8.70
2019-06-08T19:06:28.888Z,8.33
2019-06-08T19:09:01.724Z,7.40
2019-06-08T19:11:37.187Z,6.93
2019-06-08T19:14:09.283Z,7.03
2019-06-08T19:16:43.701Z,6.47
2019-06-08T19:19:14.214Z,5.90
2019-06-08T19:21:48.519Z,5.93
2019-06-08T19:24:18.881Z,5.70
2019-06-08T19:26:50.447Z,6.57
2019-06-08T19:29:21.757Z,6.67
2019-06-08T19:31:53.295Z,7.30
2019-06-08T19:34:24.684Z,6.57
2019-06-08T19:36:57.310Z,6.77
2019-06-08T19:39:28.785Z,7.13
2019-06-08T19:42:00.212Z,7.03
2019-06-08T19:44:31.483Z,7.00
2019-06-08T19:47:03.845Z,7.23
2019-06-08T19:49:35.136Z,6.93
2019-06-08T19:52:08.429Z,6.80
2019-06-08T19:54:45.389Z,7.37
2019-06-08T19:57:12.750Z,6.50
2019-06-08T19:59:44.062Z,7.13
2019-06-08T20:02:17.591Z,5.90
2019-06-08T20:04:48.940Z,6.60
2019-06-08T20:07:20.264Z,6.27
2019-06-08T20:09:51.425Z,5.73
2019-06-08T20:12:22.906Z,5.07
2019-06-08T20:14:54.168Z,4.87
2019-06-08T20:17:28.183Z,4.83
2019-06-08T20:19:58.617Z,4.93
2019-06-08T20:22:29.975Z,4.87
2019-06-08T20:25:01.221Z,3.50
2019-06-08T20:27:32.608Z,3.53
2019-06-08T20:30:09.609Z,3.30
2019-06-08T20:32:39.193Z,3.17
2019-06-08T20:35:10.768Z,2.73
2019-06-08T20:37:43.561Z,2.53
2019-06-08T20:40:15.028Z,2.70
2019-06-08T20:42:49.299Z,3.27
2019-06-08T20:45:19.389Z,2.90
2019-06-08T20:56:11.267Z,2.40
2019-06-08T21:06:12.580Z,2.57
2019-06-08T21:16:18.199Z,2.00
2019-06-08T21:26:20.258Z,2.10
2019-06-08T21:36:21.540Z,2.03
2019-06-08T21:46:22.797Z,1.67
2019-06-08T21:56:24.416Z,1.87
2019-06-08T22:06:25.791Z,2.13
2019-06-08T22:16:27.435Z,2.20
2019-06-08T22:26:28.794Z,1.93
2019-06-08T22:36:29.993Z,2.10
2019-06-08T22:46:32.223Z,1.80
2019-06-08T22:56:33.445Z,1.93
2019-06-08T23:06:34.963Z,2.00
2019-06-08T23:16:36.502Z,2.17
2019-06-08T23:26:37.771Z,1.83
2019-06-08T23:36:51.664Z,3.00
2019-06-08T23:46:42.087Z,2.20
2019-06-08T23:56:43.391Z,2.70
